Rhodhiss, North Carolina
Current Conditions -  °F | °C
As of 5:53 PM on Thursday 18 Dec 2014 (Local Time) from KHKY Reporting Station
Broken Clouds Broken Clouds  
Wind Chill:   Ceiling: 6000
Heat Index:   Visibility: 10mi
Dew Point: -4°   Wind: 0mph
Humidity: 39%   Direction: NA
Pressure: 30.06"   Gusts: NA
Location:  35.77°N, 81.43°W
Report Text: KHKY 182253Z AUTO 00000KT 10SM BKN060 09/M04 A3006 RMK AO2 SLP172 T00941039
Loading
Personal Weather Stations






























Interactive Weather Map New forecast layout! Learn more

10-Day Weather Forecast

Advertisements
Track Severe Weather on mobile